Time;durP1;ratioP1;P1;durP2;ratioP2;P2;SDS_P1;SDS_P2;PMS_P1;PMS_P2;Temp;Humidity;BMP_temperature;BMP_pressure;BME280_temperature;BME280_humidity;BME280_pressure;Samples;Min_cycle;Max_cycle;Signal;HPM_P1;HPM_P2
2023/01/23 00:01:36;;;;;;;;;;;3.20;99.90;;;;;;5048741;28;19921;-62
2023/01/23 00:04:02;;;;;;;;;;;3.30;99.90;;;;;;5048422;28;19920;-60
2023/01/23 00:06:27;;;;;;;;;;;3.30;99.90;;;;;;5046559;28;19921;-62
2023/01/23 00:08:55;;;;;;;;;;;3.30;99.90;;;;;;5049251;28;19944;-62
2023/01/23 00:11:21;;;;;;;;;;;3.30;99.90;;;;;;5056823;28;19920;-62
2023/01/23 00:13:47;;;;;;;;;;;3.30;99.90;;;;;;5049379;28;19927;-62
2023/01/23 00:16:13;;;;;;;;;;;3.30;99.90;;;;;;5054510;28;19913;-61
2023/01/23 00:18:39;;;;;;;;;;;3.30;99.90;;;;;;5048241;28;19919;-59
2023/01/23 00:21:05;;;;;;;;;;;3.30;99.90;;;;;;5052812;28;19913;-62
2023/01/23 00:23:31;;;;;;;;;;;3.30;99.90;;;;;;5052933;28;19924;-60
2023/01/23 00:26:07;;;;;;;;;;;3.30;99.90;;;;;;5052177;28;19917;-62
2023/01/23 00:28:33;;;;;;;;;;;3.30;99.90;;;;;;5048127;28;19958;-62
2023/01/23 00:31:02;;;;;;;;;;;3.30;99.90;;;;;;5049472;28;20046;-60
2023/01/23 00:33:28;;;;;;;;;;;3.30;99.90;;;;;;5051387;28;19912;-61
2023/01/23 00:35:53;;;;;;;;;;;3.30;99.90;;;;;;5048742;28;19920;-61
2023/01/23 00:38:19;;;;;;;;;;;3.30;99.90;;;;;;5051866;28;19913;-62
2023/01/23 00:40:44;;;;;;;;;;;3.30;99.90;;;;;;5048693;28;19913;-61
2023/01/23 00:43:10;;;;;;;;;;;3.20;99.90;;;;;;5054956;28;19971;-58
2023/01/23 00:45:36;;;;;;;;;;;3.30;99.90;;;;;;5043730;28;19921;-61
2023/01/23 00:48:02;;;;;;;;;;;3.30;99.90;;;;;;5047446;28;20460;-60
2023/01/23 00:50:27;;;;;;;;;;;3.30;99.90;;;;;;5051131;28;19921;-61
2023/01/23 00:52:53;;;;;;;;;;;3.20;99.90;;;;;;5052435;28;20287;-62
2023/01/23 00:55:18;;;;;;;;;;;3.20;99.90;;;;;;5051013;28;19913;-61
2023/01/23 00:57:43;;;;;;;;;;;3.20;99.90;;;;;;5047413;28;19921;-61
2023/01/23 01:00:09;;;;;;;;;;;3.20;99.90;;;;;;5050458;28;19913;-62
2023/01/23 01:02:35;;;;;;;;;;;3.20;99.90;;;;;;5051242;28;19939;-63
2023/01/23 01:05:00;;;;;;;;;;;3.20;99.90;;;;;;5052591;28;20045;-62
2023/01/23 01:07:26;;;;;;;;;;;3.20;99.90;;;;;;5059185;28;19958;-61
2023/01/23 01:09:51;;;;;;;;;;;3.20;99.90;;;;;;5051761;28;19919;-62
2023/01/23 01:12:18;;;;;;;;;;;3.20;99.90;;;;;;5051213;28;19927;-61
2023/01/23 01:14:43;;;;;;;;;;;3.20;99.90;;;;;;5051178;28;19971;-59
2023/01/23 01:17:09;;;;;;;;;;;3.20;99.90;;;;;;5053802;28;19913;-58
2023/01/23 01:19:35;;;;;;;;;;;3.20;99.90;;;;;;5054588;28;19917;-61
2023/01/23 01:22:00;;;;;;;;;;;3.20;99.90;;;;;;5054382;28;20379;-60
2023/01/23 01:24:26;;;;;;;;;;;3.30;99.90;;;;;;5050819;28;19920;-61
2023/01/23 01:26:51;;;;;;;;;;;3.30;99.90;;;;;;5057658;28;20310;-61
2023/01/23 01:29:17;;;;;;;;;;;3.30;99.90;;;;;;5055772;28;20008;-61
2023/01/23 01:31:42;;;;;;;;;;;3.30;99.90;;;;;;5051053;28;19933;-61
2023/01/23 01:34:07;;;;;;;;;;;3.30;99.90;;;;;;5054437;28;19916;-60
2023/01/23 01:36:33;;;;;;;;;;;3.30;99.90;;;;;;5058201;28;19916;-61
2023/01/23 01:38:58;;;;;;;;;;;3.30;99.90;;;;;;5049717;28;19959;-61
2023/01/23 01:41:24;;;;;;;;;;;3.30;99.90;;;;;;5055424;28;19960;-59
2023/01/23 01:43:52;;;;;;;;;;;3.40;99.90;;;;;;5053563;28;19925;-61
2023/01/23 01:46:19;;;;;;;;;;;3.40;99.90;;;;;;5050404;28;19921;-59
2023/01/23 01:48:48;;;;;;;;;;;3.40;99.90;;;;;;5055752;28;19912;-61
2023/01/23 01:51:34;;;;;;;;;;;3.40;99.90;;;;;;5056526;28;19964;-60
2023/01/23 01:53:59;;;;;;;;;;;3.40;99.90;;;;;;5045838;28;20043;-61
2023/01/23 01:56:26;;;;;;;;;;;3.40;99.90;;;;;;5056142;28;20003;-61
2023/01/23 01:58:52;;;;;;;;;;;3.40;99.90;;;;;;5051220;28;20588;-61
2023/01/23 02:01:18;;;;;;;;;;;3.40;99.90;;;;;;5055958;28;20409;-63
2023/01/23 02:03:44;;;;;;;;;;;3.40;99.90;;;;;;5052769;28;19931;-61
2023/01/23 02:06:10;;;;;;;;;;;3.40;99.90;;;;;;5053134;28;19913;-61
2023/01/23 02:08:41;;;;;;;;;;;3.40;99.90;;;;;;5055194;28;19921;-60
2023/01/23 02:11:07;;;;;;;;;;;3.40;99.90;;;;;;5052473;28;19921;-62
2023/01/23 02:13:38;;;;;;;;;;;3.40;99.90;;;;;;5055811;28;20424;-61
2023/01/23 02:16:14;;;;;;;;;;;3.40;99.90;;;;;;5051987;28;20418;-60
2023/01/23 02:18:43;;;;;;;;;;;3.50;99.90;;;;;;5051864;28;20011;-61
2023/01/23 02:21:09;;;;;;;;;;;3.50;99.90;;;;;;5052131;28;20287;-61
2023/01/23 02:23:53;;;;;;;;;;;3.40;99.90;;;;;;5054180;28;19920;-60
2023/01/23 02:26:21;;;;;;;;;;;3.40;99.90;;;;;;5051277;28;19921;-61
2023/01/23 02:28:48;;;;;;;;;;;3.40;99.90;;;;;;5052901;28;19916;-62
2023/01/23 02:31:14;;;;;;;;;;;3.40;99.90;;;;;;5057561;28;22053;-62
2023/01/23 02:33:42;;;;;;;;;;;3.40;99.90;;;;;;5055575;28;20283;-61
2023/01/23 02:36:09;;;;;;;;;;;3.40;99.90;;;;;;5052187;28;19916;-60
2023/01/23 02:38:37;;;;;;;;;;;3.40;99.90;;;;;;5051588;28;20003;-60
2023/01/23 02:41:04;;;;;;;;;;;3.40;99.90;;;;;;5054482;28;20004;-61
2023/01/23 02:43:37;;;;;;;;;;;3.40;99.90;;;;;;5054484;28;19923;-60
2023/01/23 02:46:03;;;;;;;;;;;3.40;99.90;;;;;;5052793;28;19923;-59
2023/01/23 02:48:29;;;;;;;;;;;3.40;99.90;;;;;;5054286;28;20385;-61
2023/01/23 02:50:54;;;;;;;;;;;3.40;99.90;;;;;;5052760;28;20016;-61
2023/01/23 02:53:20;;;;;;;;;;;3.30;99.90;;;;;;5053140;28;19940;-62
2023/01/23 02:55:45;;;;;;;;;;;3.40;99.90;;;;;;5051278;28;19921;-62
2023/01/23 03:00:55;;;;;;;;;;;3.40;99.90;;;;;;5052302;28;19959;-61
2023/01/23 03:03:21;;;;;;;;;;;3.30;99.90;;;;;;5051588;28;19921;-62
2023/01/23 03:05:47;;;;;;;;;;;3.30;99.90;;;;;;5052979;28;19917;-61
2023/01/23 03:08:12;;;;;;;;;;;3.30;99.90;;;;;;5050073;28;20406;-62
2023/01/23 03:10:38;;;;;;;;;;;3.30;99.90;;;;;;5053218;28;19912;-62
2023/01/23 03:13:06;;;;;;;;;;;3.30;99.90;;;;;;5051831;28;19964;-62
2023/01/23 03:15:32;;;;;;;;;;;3.30;99.90;;;;;;5052469;28;19919;-62
2023/01/23 03:17:58;;;;;;;;;;;3.30;99.90;;;;;;5053974;28;19916;-62
2023/01/23 03:20:23;;;;;;;;;;;3.30;99.90;;;;;;5051110;28;19932;-62
2023/01/23 03:22:49;;;;;;;;;;;3.20;99.90;;;;;;5047201;28;20303;-61
2023/01/23 03:25:15;;;;;;;;;;;3.20;99.90;;;;;;5051274;28;19985;-62
2023/01/23 03:27:40;;;;;;;;;;;3.20;99.90;;;;;;5050358;28;19920;-61
2023/01/23 03:30:12;;;;;;;;;;;3.20;99.90;;;;;;5051264;28;20401;-61
2023/01/23 03:32:38;;;;;;;;;;;3.20;99.90;;;;;;5052722;28;19921;-61
2023/01/23 03:35:04;;;;;;;;;;;3.20;99.90;;;;;;5050996;28;19912;-61
2023/01/23 03:37:29;;;;;;;;;;;3.20;99.90;;;;;;5057486;28;19921;-62
2023/01/23 03:42:39;;;;;;;;;;;3.20;99.90;;;;;;5047087;28;20429;-61
2023/01/23 03:45:05;;;;;;;;;;;3.10;99.90;;;;;;5051688;28;20023;-60
2023/01/23 03:47:30;;;;;;;;;;;3.10;99.90;;;;;;5067952;28;20000;-60
2023/01/23 03:49:56;;;;;;;;;;;2.90;99.90;;;;;;5052388;28;20031;-61
2023/01/23 03:52:21;;;;;;;;;;;3.00;99.90;;;;;;5053046;28;19924;-60
2023/01/23 03:54:47;;;;;;;;;;;2.90;99.90;;;;;;5053696;28;20013;-61
2023/01/23 03:57:12;;;;;;;;;;;2.90;99.90;;;;;;5051276;28;19913;-60
2023/01/23 03:59:38;;;;;;;;;;;2.90;99.90;;;;;;5045624;28;19913;-62
2023/01/23 04:02:03;;;;;;;;;;;2.80;99.90;;;;;;5053401;28;19924;-59
2023/01/23 04:04:29;;;;;;;;;;;2.80;99.90;;;;;;5052535;28;19951;-61
2023/01/23 04:06:55;;;;;;;;;;;2.80;99.90;;;;;;5051017;28;20240;-62
2023/01/23 04:09:26;;;;;;;;;;;2.90;99.90;;;;;;5052179;28;19921;-60
2023/01/23 04:11:51;;;;;;;;;;;3.00;99.90;;;;;;5048763;28;20378;-62
2023/01/23 04:14:17;;;;;;;;;;;2.90;99.90;;;;;;5051638;28;19921;-62
2023/01/23 04:16:42;;;;;;;;;;;3.00;99.90;;;;;;5046976;28;19974;-59
2023/01/23 04:19:07;;;;;;;;;;;3.00;99.90;;;;;;5055380;28;19920;-60
2023/01/23 04:21:33;;;;;;;;;;;3.00;99.90;;;;;;5049112;28;19920;-61
2023/01/23 04:23:58;;;;;;;;;;;3.00;99.90;;;;;;5053050;28;20011;-61
2023/01/23 04:26:24;;;;;;;;;;;3.00;99.90;;;;;;5051789;28;19920;-60
2023/01/23 04:28:49;;;;;;;;;;;3.10;99.90;;;;;;5050677;28;19913;-59
2023/01/23 04:31:15;;;;;;;;;;;3.10;99.90;;;;;;5053730;28;20011;-60
2023/01/23 04:33:40;;;;;;;;;;;3.10;99.90;;;;;;5052667;28;19912;-61
2023/01/23 04:36:06;;;;;;;;;;;3.10;99.90;;;;;;5048024;28;19998;-60
2023/01/23 04:38:32;;;;;;;;;;;3.10;99.90;;;;;;5051128;28;20387;-61
2023/01/23 04:40:58;;;;;;;;;;;3.10;99.90;;;;;;5050482;28;19927;-60
2023/01/23 04:43:24;;;;;;;;;;;3.10;99.90;;;;;;5054945;28;19924;-59
2023/01/23 04:45:50;;;;;;;;;;;3.10;99.90;;;;;;5048837;28;19920;-60
2023/01/23 04:48:15;;;;;;;;;;;3.10;99.90;;;;;;5053891;28;19967;-62
2023/01/23 04:50:41;;;;;;;;;;;3.10;99.90;;;;;;5057108;28;20174;-62
2023/01/23 04:53:07;;;;;;;;;;;3.10;99.90;;;;;;5074029;22;19931;-83
2023/01/23 04:55:32;;;;;;;;;;;3.10;99.90;;;;;;5083481;28;19908;-80
2023/01/23 04:57:58;;;;;;;;;;;3.10;99.90;;;;;;5038440;28;20285;-86
2023/01/23 05:00:24;;;;;;;;;;;3.10;99.90;;;;;;5055795;28;19913;-85
2023/01/23 05:02:50;;;;;;;;;;;3.00;99.90;;;;;;5045057;28;19999;-85
2023/01/23 05:05:19;;;;;;;;;;;3.00;99.90;;;;;;5042903;28;19943;-84
2023/01/23 05:07:46;;;;;;;;;;;3.00;99.90;;;;;;5045980;28;19973;-85
2023/01/23 05:10:12;;;;;;;;;;;3.00;99.90;;;;;;5037827;28;19963;-82
2023/01/23 05:12:37;;;;;;;;;;;3.00;99.90;;;;;;5057299;28;20423;-85
2023/01/23 05:15:03;;;;;;;;;;;2.90;99.90;;;;;;5038794;28;19959;-84
2023/01/23 05:17:29;;;;;;;;;;;2.90;99.90;;;;;;5039380;28;20337;-84
2023/01/23 05:19:54;;;;;;;;;;;2.90;99.90;;;;;;5055847;28;19913;-86
2023/01/23 05:22:20;;;;;;;;;;;2.80;99.90;;;;;;5042531;28;19917;-86
2023/01/23 05:24:45;;;;;;;;;;;2.80;99.90;;;;;;5059074;28;20000;-85
2023/01/23 05:27:11;;;;;;;;;;;2.80;99.90;;;;;;5057969;28;19959;-84
2023/01/23 05:29:37;;;;;;;;;;;2.80;99.90;;;;;;5067992;28;19913;-84
2023/01/23 05:32:05;;;;;;;;;;;2.70;99.90;;;;;;5057761;28;19917;-84
2023/01/23 05:34:30;;;;;;;;;;;2.60;99.90;;;;;;5062953;28;19917;-83
2023/01/23 05:36:56;;;;;;;;;;;2.60;99.90;;;;;;5061397;28;19913;-85
2023/01/23 05:39:21;;;;;;;;;;;2.50;99.90;;;;;;5057546;28;19996;-84
2023/01/23 05:41:47;;;;;;;;;;;2.50;99.90;;;;;;5062191;28;19913;-83
2023/01/23 05:44:13;;;;;;;;;;;2.50;99.90;;;;;;5055177;28;19921;-83
2023/01/23 05:46:38;;;;;;;;;;;2.50;99.90;;;;;;5064680;28;20400;-84
2023/01/23 05:49:04;;;;;;;;;;;2.50;99.90;;;;;;5041407;28;19912;-84
2023/01/23 05:51:31;;;;;;;;;;;2.60;99.90;;;;;;5057798;28;19921;-85
2023/01/23 05:54:00;;;;;;;;;;;2.60;99.90;;;;;;5035904;28;19917;-84
2023/01/23 05:56:26;;;;;;;;;;;2.70;99.90;;;;;;5044229;28;19913;-86
2023/01/23 05:58:51;;;;;;;;;;;2.70;99.90;;;;;;5044638;28;19916;-85
2023/01/23 06:01:18;;;;;;;;;;;2.70;99.90;;;;;;5040280;28;19975;-82
2023/01/23 06:03:43;;;;;;;;;;;2.70;99.90;;;;;;5027189;28;19913;-82
2023/01/23 06:06:09;;;;;;;;;;;2.70;99.90;;;;;;5023847;28;19909;-84
2023/01/23 06:08:34;;;;;;;;;;;2.70;99.90;;;;;;5024115;28;19909;-83
2023/01/23 06:11:00;;;;;;;;;;;2.80;99.90;;;;;;5023860;28;19935;-86
2023/01/23 06:13:26;;;;;;;;;;;2.70;99.90;;;;;;5024304;28;19967;-82
2023/01/23 06:15:52;;;;;;;;;;;2.70;99.90;;;;;;5041948;28;19916;-84
2023/01/23 06:18:17;;;;;;;;;;;2.70;99.90;;;;;;5024241;28;20370;-83
2023/01/23 06:20:43;;;;;;;;;;;2.70;99.90;;;;;;5024384;28;20004;-84
2023/01/23 06:23:08;;;;;;;;;;;2.70;99.90;;;;;;5042505;28;19913;-83
2023/01/23 06:25:34;;;;;;;;;;;2.60;99.90;;;;;;5040283;28;19909;-82
2023/01/23 06:28:00;;;;;;;;;;;2.50;99.90;;;;;;5041396;28;19917;-82
2023/01/23 06:30:25;;;;;;;;;;;2.50;99.90;;;;;;5025037;28;20038;-82
2023/01/23 06:32:51;;;;;;;;;;;2.40;99.90;;;;;;5028080;28;20377;-84
2023/01/23 06:35:16;;;;;;;;;;;2.30;99.90;;;;;;5061013;28;19913;-84
2023/01/23 06:37:42;;;;;;;;;;;2.30;99.90;;;;;;5044632;28;19909;-85
2023/01/23 06:40:11;;;;;;;;;;;2.30;99.90;;;;;;5042590;28;19909;-85
2023/01/23 06:42:37;;;;;;;;;;;2.30;99.90;;;;;;5054147;28;20377;-84
2023/01/23 06:45:03;;;;;;;;;;;2.30;99.90;;;;;;5062856;28;19908;-80
2023/01/23 06:47:29;;;;;;;;;;;2.40;99.90;;;;;;5061960;28;19909;-85
2023/01/23 06:49:54;;;;;;;;;;;2.40;99.90;;;;;;5063265;28;19908;-85
2023/01/23 06:52:19;;;;;;;;;;;2.50;99.90;;;;;;5080648;28;19924;-84
2023/01/23 06:54:45;;;;;;;;;;;2.60;99.90;;;;;;5062965;28;20010;-84
2023/01/23 06:57:11;;;;;;;;;;;2.70;99.90;;;;;;5067764;28;20220;-83
2023/01/23 06:59:37;;;;;;;;;;;2.70;99.90;;;;;;5061603;28;20365;-84
2023/01/23 07:02:03;;;;;;;;;;;2.80;99.90;;;;;;5062293;28;19924;-82
2023/01/23 07:04:28;;;;;;;;;;;2.70;99.90;;;;;;5061509;28;19912;-83
2023/01/23 07:06:54;;;;;;;;;;;2.80;99.90;;;;;;5062862;28;19909;-85
2023/01/23 07:09:19;;;;;;;;;;;2.80;99.90;;;;;;5044671;28;19909;-82
2023/01/23 07:11:45;;;;;;;;;;;2.80;99.90;;;;;;5059120;28;20312;-81
2023/01/23 07:14:10;;;;;;;;;;;2.90;99.90;;;;;;5041577;28;19913;-82
2023/01/23 07:16:36;;;;;;;;;;;2.80;99.90;;;;;;5061992;28;19913;-79
2023/01/23 07:19:02;;;;;;;;;;;2.80;99.90;;;;;;5034691;28;19921;-83
2023/01/23 07:21:28;;;;;;;;;;;2.90;99.90;;;;;;5020034;28;19909;-82
2023/01/23 07:23:53;;;;;;;;;;;2.90;99.90;;;;;;5019749;28;19920;-82
2023/01/23 07:26:19;;;;;;;;;;;2.90;99.90;;;;;;5037695;28;19909;-80
2023/01/23 07:28:44;;;;;;;;;;;2.90;99.90;;;;;;5019713;28;19916;-79
2023/01/23 07:31:10;;;;;;;;;;;3.00;99.90;;;;;;5021878;28;19959;-81
2023/01/23 07:33:36;;;;;;;;;;;2.90;99.90;;;;;;5027001;28;19917;-84
2023/01/23 07:36:04;;;;;;;;;;;2.90;99.90;;;;;;5079379;28;19937;-82
2023/01/23 07:38:29;;;;;;;;;;;2.90;99.90;;;;;;5061256;28;19953;-83
2023/01/23 07:40:57;;;;;;;;;;;3.00;99.90;;;;;;5061817;28;20011;-81
2023/01/23 07:43:22;;;;;;;;;;;3.00;99.90;;;;;;5061627;28;20285;-84
2023/01/23 07:45:49;;;;;;;;;;;2.90;99.90;;;;;;5078409;28;19910;-83
2023/01/23 07:48:14;;;;;;;;;;;3.00;99.90;;;;;;5055322;28;19916;-82
2023/01/23 07:50:40;;;;;;;;;;;2.90;99.90;;;;;;5041492;28;19913;-81
2023/01/23 07:53:05;;;;;;;;;;;2.90;99.90;;;;;;5041240;28;19917;-81
2023/01/23 07:55:31;;;;;;;;;;;3.00;99.90;;;;;;5041527;28;20277;-81
2023/01/23 07:57:56;;;;;;;;;;;3.00;99.90;;;;;;5059611;28;20301;-81
2023/01/23 08:00:22;;;;;;;;;;;3.00;99.90;;;;;;5047773;28;19967;-82
2023/01/23 08:02:48;;;;;;;;;;;3.10;99.90;;;;;;5038905;28;19917;-83
2023/01/23 08:05:13;;;;;;;;;;;3.10;99.90;;;;;;5040069;28;20263;-82
2023/01/23 08:07:39;;;;;;;;;;;3.10;99.90;;;;;;5038496;28;19909;-82
2023/01/23 08:10:05;;;;;;;;;;;3.10;99.90;;;;;;5022666;28;19909;-83
2023/01/23 08:12:30;;;;;;;;;;;3.10;99.90;;;;;;5023031;28;19909;-82
2023/01/23 08:14:55;;;;;;;;;;;3.10;99.90;;;;;;5021194;28;19913;-82
2023/01/23 08:17:21;;;;;;;;;;;3.10;99.90;;;;;;5037499;28;20376;-81
2023/01/23 08:19:47;;;;;;;;;;;3.20;99.90;;;;;;5039114;28;20054;-82
2023/01/23 08:22:13;;;;;;;;;;;3.20;99.90;;;;;;5038046;28;19916;-81
2023/01/23 08:24:38;;;;;;;;;;;3.30;99.90;;;;;;5038667;28;19914;-82
2023/01/23 08:27:04;;;;;;;;;;;3.30;99.90;;;;;;5068559;28;19908;-80
2023/01/23 08:29:30;;;;;;;;;;;3.30;99.90;;;;;;5062207;28;19912;-82
2023/01/23 08:31:55;;;;;;;;;;;3.40;99.90;;;;;;5062629;28;19912;-83
2023/01/23 08:34:22;;;;;;;;;;;3.40;99.90;;;;;;5048478;28;19914;-83
2023/01/23 08:36:48;;;;;;;;;;;3.40;99.90;;;;;;5060064;28;20296;-82
2023/01/23 08:39:15;;;;;;;;;;;3.50;99.90;;;;;;5060062;28;19913;-82
2023/01/23 08:41:40;;;;;;;;;;;3.50;99.90;;;;;;5042098;28;19913;-81
2023/01/23 08:44:06;;;;;;;;;;;3.50;99.90;;;;;;5042206;28;19966;-83
2023/01/23 08:46:31;;;;;;;;;;;3.60;99.90;;;;;;5060104;28;19912;-83
2023/01/23 08:48:57;;;;;;;;;;;3.60;99.90;;;;;;5041541;28;19915;-81
2023/01/23 08:51:22;;;;;;;;;;;3.70;99.90;;;;;;5038734;28;20432;-83
2023/01/23 08:53:50;;;;;;;;;;;3.70;99.90;;;;;;5048842;28;19917;-80
2023/01/23 08:56:16;;;;;;;;;;;3.70;99.90;;;;;;5032598;28;19909;-80
2023/01/23 08:58:42;;;;;;;;;;;3.70;99.90;;;;;;5058036;28;20274;-83
2023/01/23 09:01:26;;;;;;;;;;;3.80;99.90;;;;;;5057458;28;19931;-83
2023/01/23 09:03:52;;;;;;;;;;;3.80;99.90;;;;;;5056642;28;19913;-82
2023/01/23 09:06:19;;;;;;;;;;;3.80;99.90;;;;;;5054523;28;19909;-82
2023/01/23 09:08:44;;;;;;;;;;;3.80;99.90;;;;;;5058991;28;19909;-83
2023/01/23 09:11:10;;;;;;;;;;;3.70;99.90;;;;;;5074661;28;19916;-82
2023/01/23 09:13:36;;;;;;;;;;;3.70;99.90;;;;;;5062912;28;19983;-84
2023/01/23 09:16:02;;;;;;;;;;;3.70;99.90;;;;;;5042046;28;19916;-81
2023/01/23 09:18:28;;;;;;;;;;;3.80;99.90;;;;;;5028743;28;20035;-81
2023/01/23 09:20:53;;;;;;;;;;;3.80;99.90;;;;;;5058341;28;19939;-79
2023/01/23 09:23:19;;;;;;;;;;;3.90;99.90;;;;;;5044994;28;19968;-82
2023/01/23 09:25:45;;;;;;;;;;;3.80;99.90;;;;;;5045213;28;19962;-82
2023/01/23 09:28:10;;;;;;;;;;;3.90;99.90;;;;;;5048436;28;20382;-81
2023/01/23 09:30:36;;;;;;;;;;;3.90;99.90;;;;;;5039665;28;19913;-81
2023/01/23 09:33:01;;;;;;;;;;;3.90;99.90;;;;;;5056805;28;19932;-83
2023/01/23 09:35:27;;;;;;;;;;;3.80;99.90;;;;;;5057881;28;19908;-81
2023/01/23 09:37:58;;;;;;;;;;;3.80;99.90;;;;;;5052433;28;19913;-82
2023/01/23 09:40:26;;;;;;;;;;;3.80;99.90;;;;;;5041922;28;19916;-83
2023/01/23 09:42:53;;;;;;;;;;;3.90;99.90;;;;;;5055179;28;19921;-83
2023/01/23 09:45:20;;;;;;;;;;;3.90;99.90;;;;;;5046807;28;19964;-82
2023/01/23 09:47:49;;;;;;;;;;;3.90;99.90;;;;;;5024196;28;19909;-80
2023/01/23 09:50:29;;;;;;;;;;;3.90;99.90;;;;;;5031739;28;19913;-80
2023/01/23 09:53:00;;;;;;;;;;;3.90;99.90;;;;;;5059400;28;19924;-82
2023/01/23 09:55:31;;;;;;;;;;;3.90;99.90;;;;;;5051862;28;19931;-82
2023/01/23 09:57:59;;;;;;;;;;;3.90;99.90;;;;;;5061786;28;19995;-82
2023/01/23 10:00:26;;;;;;;;;;;3.90;99.90;;;;;;5061843;28;20057;-83
2023/01/23 10:02:52;;;;;;;;;;;3.80;99.90;;;;;;5054071;28;19920;-81
2023/01/23 10:05:33;;;;;;;;;;;3.90;99.90;;;;;;5042346;28;19948;-83
2023/01/23 10:08:01;;;;;;;;;;;4.00;99.90;;;;;;5055516;28;20366;-80
2023/01/23 10:10:39;;;;;;;;;;;4.00;99.90;;;;;;5066617;28;20273;-81
2023/01/23 10:13:14;;;;;;;;;;;4.00;99.90;;;;;;5042663;28;19913;-80
2023/01/23 10:15:58;;;;;;;;;;;4.00;99.90;;;;;;5043326;28;20054;-82
2023/01/23 10:18:34;;;;;;;;;;;3.90;99.90;;;;;;5032667;28;19913;-82
2023/01/23 10:21:18;;;;;;;;;;;4.00;99.90;;;;;;5059153;28;19916;-80
2023/01/23 10:23:55;;;;;;;;;;;4.00;99.90;;;;;;5053407;28;20392;-83
2023/01/23 10:26:23;;;;;;;;;;;4.10;99.90;;;;;;5042378;28;20270;-83
2023/01/23 10:28:51;;;;;;;;;;;4.10;99.90;;;;;;5048825;28;19940;-80
2023/01/23 10:31:29;;;;;;;;;;;4.20;99.90;;;;;;5079024;28;20312;-82
2023/01/23 10:34:00;;;;;;;;;;;4.20;99.90;;;;;;5060308;28;19935;-79
2023/01/23 10:36:29;;;;;;;;;;;4.20;99.90;;;;;;5066963;28;19952;-80
2023/01/23 10:39:00;;;;;;;;;;;4.30;99.90;;;;;;5041196;28;19916;-83
2023/01/23 10:41:26;;;;;;;;;;;4.30;99.90;;;;;;5059252;28;19955;-83
2023/01/23 10:43:52;;;;;;;;;;;4.40;99.90;;;;;;5059874;28;20279;-84
2023/01/23 10:46:20;;;;;;;;;;;4.40;99.90;;;;;;5079471;28;19912;-83
2023/01/23 10:48:50;;;;;;;;;;;4.40;99.90;;;;;;5058545;28;19909;-81
2023/01/23 10:51:33;;;;;;;;;;;4.40;99.90;;;;;;5057424;28;19962;-82
2023/01/23 10:53:59;;;;;;;;;;;4.50;99.90;;;;;;5051914;28;19927;-81
2023/01/23 10:56:25;;;;;;;;;;;4.50;99.90;;;;;;5039623;28;19913;-82
2023/01/23 10:58:53;;;;;;;;;;;4.50;99.90;;;;;;5063059;28;20378;-83
2023/01/23 11:01:24;;;;;;;;;;;4.50;99.90;;;;;;5060936;28;19909;-82
2023/01/23 11:03:50;;;;;;;;;;;4.60;99.90;;;;;;5036456;28;19967;-81
2023/01/23 11:06:16;;;;;;;;;;;4.60;99.90;;;;;;5023530;28;19909;-82
2023/01/23 11:08:56;;;;;;;;;;;4.70;99.90;;;;;;5060236;28;19912;-79
2023/01/23 11:11:23;;;;;;;;;;;4.70;99.90;;;;;;5056404;28;19916;-81
2023/01/23 11:14:00;;;;;;;;;;;4.70;99.90;;;;;;5047992;28;19921;-79
2023/01/23 11:16:26;;;;;;;;;;;4.70;99.90;;;;;;5036935;28;19912;-80
2023/01/23 11:18:54;;;;;;;;;;;4.70;99.90;;;;;;5057270;28;19913;-81
2023/01/23 11:21:20;;;;;;;;;;;4.80;99.90;;;;;;5036429;28;19912;-83
2023/01/23 11:23:46;;;;;;;;;;;4.80;99.90;;;;;;5076283;28;19963;-83
2023/01/23 11:26:31;;;;;;;;;;;4.90;99.90;;;;;;5063008;28;19913;-83
2023/01/23 11:28:56;;;;;;;;;;;4.90;99.90;;;;;;5064032;28;19919;-86
2023/01/23 11:31:25;;;;;;;;;;;5.00;99.90;;;;;;5038697;28;19944;-80
2023/01/23 11:34:15;;;;;;;;;;;5.00;99.90;;;;;;5036362;28;19912;-83
2023/01/23 11:36:50;;;;;;;;;;;5.10;99.90;;;;;;5045126;28;19912;-83
2023/01/23 11:39:34;;;;;;;;;;;5.10;99.90;;;;;;5065498;28;19956;-82
2023/01/23 11:41:59;;;;;;;;;;;5.10;99.90;;;;;;5039517;28;19913;-81
2023/01/23 11:44:25;;;;;;;;;;;5.00;99.90;;;;;;5052251;28;19965;-83
2023/01/23 11:46:51;;;;;;;;;;;5.00;99.90;;;;;;5059641;28;19919;-80
2023/01/23 11:49:17;;;;;;;;;;;;;;;;;;5045597;28;19917;-81
2023/01/23 11:51:42;;;;;;;;;;;5.10;99.90;;;;;;5039038;28;19914;-84
2023/01/23 11:54:19;;;;;;;;;;;5.20;99.90;;;;;;5035785;28;19917;-81
2023/01/23 11:56:57;;;;;;;;;;;5.10;99.90;;;;;;5036174;28;19913;-83
2023/01/23 11:59:36;;;;;;;;;;;5.10;99.90;;;;;;5069131;28;19913;-82
2023/01/23 12:02:20;;;;;;;;;;;5.20;99.90;;;;;;5041550;28;19917;-83
2023/01/23 12:04:48;;;;;;;;;;;5.30;99.90;;;;;;5038124;28;19917;-82
2023/01/23 12:07:16;;;;;;;;;;;5.30;99.90;;;;;;5056310;28;19920;-81
2023/01/23 12:09:41;;;;;;;;;;;5.10;99.90;;;;;;5061095;28;19913;-82
2023/01/23 12:12:07;;;;;;;;;;;5.10;99.90;;;;;;5077159;22;19897;-62
2023/01/23 12:14:47;;;;;;;;;;;5.10;99.90;;;;;;5061675;28;20389;-65
2023/01/23 12:17:13;;;;;;;;;;;5.20;99.90;;;;;;5041164;28;20565;-62
2023/01/23 12:19:47;;;;;;;;;;;5.20;99.90;;;;;;5060847;28;19913;-61
2023/01/23 12:22:19;;;;;;;;;;;5.20;99.90;;;;;;5061961;28;19919;-61
2023/01/23 12:24:50;;;;;;;;;;;5.20;99.90;;;;;;5062275;28;20385;-62
2023/01/23 12:27:35;;;;;;;;;;;5.20;99.90;;;;;;5063473;28;19913;-62
2023/01/23 12:30:07;;;;;;;;;;;5.20;99.90;;;;;;5046747;28;19939;-62
2023/01/23 12:32:43;;;;;;;;;;;5.20;99.90;;;;;;5060970;28;20034;-63
2023/01/23 12:35:44;;;;;;;;;;;5.00;99.90;;;;;;5061624;28;20033;-63
2023/01/23 12:38:10;;;;;;;;;;;5.10;99.90;;;;;;4984118;28;20524;-63
2023/01/23 12:41:08;;;;;;;;;;;5.10;99.90;;;;;;5045392;28;20326;-62
2023/01/23 12:43:46;;;;;;;;;;;5.10;99.90;;;;;;5015039;28;20449;-62
2023/01/23 12:46:18;;;;;;;;;;;5.10;99.90;;;;;;5061320;28;19912;-62
2023/01/23 12:48:50;;;;;;;;;;;5.10;99.90;;;;;;5061350;28;19923;-62
2023/01/23 12:51:19;;;;;;;;;;;5.20;99.90;;;;;;5060890;28;19984;-60
2023/01/23 12:53:47;;;;;;;;;;;5.20;99.90;;;;;;5058517;28;19916;-62
2023/01/23 12:56:14;;;;;;;;;;;5.20;99.90;;;;;;5040396;28;20350;-62
2023/01/23 12:58:43;;;;;;;;;;;5.20;99.90;;;;;;5057274;28;19924;-63
2023/01/23 13:01:18;;;;;;;;;;;5.20;99.90;;;;;;5061752;28;19913;-62
2023/01/23 13:03:50;;;;;;;;;;;5.20;99.90;;;;;;5061978;28;19999;-62
2023/01/23 13:06:24;;;;;;;;;;;5.20;99.90;;;;;;5060909;28;20289;-62
2023/01/23 13:09:08;;;;;;;;;;;5.20;99.90;;;;;;5060507;28;20000;-62
2023/01/23 13:11:41;;;;;;;;;;;5.10;99.90;;;;;;5061156;28;21534;-61
2023/01/23 13:14:22;;;;;;;;;;;5.10;99.90;;;;;;5064414;28;19926;-64
2023/01/23 13:16:48;;;;;;;;;;;5.10;99.90;;;;;;5064134;28;19920;-61
2023/01/23 13:22:11;;;;;;;;;;;5.10;99.90;;;;;;5069430;28;20298;-61
2023/01/23 13:25:09;;;;;;;;;;;5.10;99.90;;;;;;5071377;28;19926;-63
2023/01/23 13:27:43;;;;;;;;;;;5.10;99.90;;;;;;5070470;28;19962;-63
2023/01/23 13:30:21;;;;;;;;;;;5.00;99.90;;;;;;5064841;28;19935;-62
2023/01/23 13:32:48;;;;;;;;;;;5.10;99.90;;;;;;5067144;28;20033;-61
2023/01/23 13:35:32;;;;;;;;;;;5.20;99.90;;;;;;5061192;28;19912;-61
2023/01/23 13:37:57;;;;;;;;;;;5.20;99.90;;;;;;5061887;28;19927;-61
2023/01/23 13:40:23;;;;;;;;;;;5.20;99.90;;;;;;5061038;28;19921;-60
2023/01/23 13:42:49;;;;;;;;;;;5.20;99.90;;;;;;5065228;28;19924;-62
2023/01/23 13:45:14;;;;;;;;;;;5.20;99.90;;;;;;5064807;28;21959;-63
2023/01/23 13:50:35;;;;;;;;;;;5.20;99.90;;;;;;5060946;28;19959;-61
2023/01/23 13:58:42;;;;;;;;;;;5.20;99.90;;;;;;5059135;28;19977;-62
2023/01/23 14:06:43;;;;;;;;;;;5.20;99.90;;;;;;5064932;28;20199;-62
2023/01/23 14:09:18;;;;;;;;;;;5.20;99.90;;;;;;5063507;28;19955;-62
2023/01/23 14:11:45;;;;;;;;;;;5.20;99.90;;;;;;5060547;28;21020;-61
2023/01/23 14:16:55;;;;;;;;;;;5.30;99.90;;;;;;5066492;28;19928;-60
2023/01/23 14:19:21;;;;;;;;;;;5.30;99.90;;;;;;5047646;28;19916;-62
2023/01/23 14:21:53;;;;;;;;;;;5.40;99.90;;;;;;5063195;28;19917;-62
2023/01/23 14:24:28;;;;;;;;;;;5.40;99.90;;;;;;5065764;28;20038;-63
2023/01/23 14:27:13;;;;;;;;;;;5.40;99.90;;;;;;5067252;28;19917;-61
2023/01/23 14:29:40;;;;;;;;;;;5.40;99.90;;;;;;5049522;28;20047;-62
2023/01/23 14:32:19;;;;;;;;;;;5.40;99.90;;;;;;5058435;28;19998;-63
2023/01/23 14:34:45;;;;;;;;;;;5.40;99.90;;;;;;5060181;28;19920;-63
2023/01/23 14:37:11;;;;;;;;;;;5.40;99.90;;;;;;5061662;28;19938;-62
2023/01/23 14:39:36;;;;;;;;;;;5.40;99.90;;;;;;5060550;28;19920;-62
2023/01/23 14:42:02;;;;;;;;;;;5.40;99.90;;;;;;5062378;28;19966;-62
2023/01/23 14:44:36;;;;;;;;;;;5.20;99.90;;;;;;5062439;28;19921;-62
2023/01/23 14:47:03;;;;;;;;;;;5.20;99.90;;;;;;5061161;28;19984;-62
2023/01/23 14:49:31;;;;;;;;;;;5.20;99.90;;;;;;5062172;28;19916;-63
2023/01/23 14:51:57;;;;;;;;;;;5.10;99.90;;;;;;5059740;28;19913;-62
2023/01/23 14:54:23;;;;;;;;;;;5.20;99.90;;;;;;5062548;28;19974;-63
2023/01/23 14:56:49;;;;;;;;;;;5.20;99.90;;;;;;5065557;28;20328;-64
2023/01/23 14:59:18;;;;;;;;;;;5.20;99.90;;;;;;5063966;28;19944;-61
2023/01/23 15:01:51;;;;;;;;;;;5.20;99.90;;;;;;5062454;28;19923;-62